createdAt,value
2023-11-23T00:02:37.340Z,2.99
2023-11-23T00:05:22.440Z,2.98
2023-11-23T00:08:07.524Z,2.99
2023-11-23T00:10:52.668Z,2.93
2023-11-23T00:13:37.819Z,2.88
2023-11-23T00:16:22.872Z,2.88
2023-11-23T00:19:08.029Z,2.91
2023-11-23T00:21:53.164Z,2.86
2023-11-23T00:24:38.423Z,2.84
2023-11-23T00:27:23.409Z,2.79
2023-11-23T00:30:08.525Z,2.77
2023-11-23T00:32:53.671Z,2.77
2023-11-23T00:35:38.783Z,2.79
2023-11-23T00:38:23.831Z,2.80
2023-11-23T00:41:08.807Z,2.83
2023-11-23T00:43:54.008Z,2.86
2023-11-23T00:46:39.070Z,2.80
2023-11-23T00:49:24.235Z,2.72
2023-11-23T00:52:09.323Z,2.69
2023-11-23T00:54:54.412Z,2.70
2023-11-23T00:57:39.624Z,2.72
2023-11-23T01:00:24.764Z,2.77
2023-11-23T01:03:09.986Z,2.84
2023-11-23T01:05:55.002Z,2.88
2023-11-23T01:08:40.114Z,2.90
2023-11-23T01:11:25.240Z,2.85
2023-11-23T01:14:10.279Z,2.75
2023-11-23T01:16:55.449Z,2.72
2023-11-23T01:19:40.555Z,2.60
2023-11-23T01:22:25.766Z,2.60
2023-11-23T01:25:10.849Z,2.60
2023-11-23T01:34:01.826Z,2.72
2023-11-23T01:36:46.925Z,2.78
2023-11-23T01:39:31.955Z,2.83
2023-11-23T01:42:17.206Z,2.83
2023-11-23T01:45:02.480Z,2.85
2023-11-23T01:47:47.725Z,2.80
2023-11-23T01:50:32.544Z,2.74
2023-11-23T01:53:17.736Z,2.67
2023-11-23T01:56:02.919Z,2.65
2023-11-23T01:58:48.036Z,2.59
2023-11-23T02:01:33.431Z,2.69
2023-11-23T02:04:18.531Z,2.74
2023-11-23T02:07:03.530Z,2.74
2023-11-23T02:09:48.762Z,2.74
2023-11-23T02:12:33.837Z,2.73
2023-11-23T02:15:19.205Z,2.71
2023-11-23T02:18:04.380Z,2.72
2023-11-23T02:20:49.402Z,2.76
2023-11-23T02:23:34.556Z,2.80
2023-11-23T02:26:19.658Z,2.84
2023-11-23T02:29:04.908Z,2.84
2023-11-23T02:31:49.981Z,2.81
2023-11-23T02:34:35.166Z,2.83
2023-11-23T02:37:20.315Z,2.82
2023-11-23T02:40:05.474Z,2.85
2023-11-23T02:42:50.563Z,2.86
2023-11-23T02:45:35.693Z,2.89
2023-11-23T02:48:20.865Z,2.81
2023-11-23T02:51:05.993Z,2.62
2023-11-23T02:53:51.208Z,2.38
2023-11-23T02:56:36.232Z,2.36
2023-11-23T02:59:21.407Z,2.28
2023-11-23T03:02:06.530Z,2.44
2023-11-23T03:04:51.541Z,2.53
2023-11-23T03:07:36.701Z,2.47
2023-11-23T03:10:21.789Z,2.51
2023-11-23T03:13:07.053Z,2.51
2023-11-23T03:15:52.088Z,2.39
2023-11-23T03:18:37.370Z,2.34
2023-11-23T03:21:22.368Z,2.32
2023-11-23T03:24:07.531Z,2.35
2023-11-23T03:26:52.682Z,2.39
2023-11-23T03:29:37.701Z,2.37
2023-11-23T03:32:22.918Z,2.42
2023-11-23T03:35:07.984Z,2.42
2023-11-23T03:37:53.068Z,2.35
2023-11-23T03:40:38.142Z,2.33
2023-11-23T03:43:23.388Z,2.36
2023-11-23T03:46:08.434Z,2.58
2023-11-23T03:48:53.418Z,2.66
2023-11-23T03:51:38.544Z,2.74
2023-11-23T03:54:23.473Z,2.76
2023-11-23T03:57:08.546Z,2.82
2023-11-23T03:59:53.581Z,2.80
2023-11-23T04:02:38.763Z,2.73
2023-11-23T04:05:23.792Z,2.75
2023-11-23T04:08:08.857Z,2.74
2023-11-23T04:10:54.112Z,2.67
2023-11-23T04:13:39.104Z,2.64
2023-11-23T04:16:24.146Z,2.49
2023-11-23T04:19:09.169Z,2.40
2023-11-23T04:21:54.311Z,2.26
2023-11-23T04:24:39.423Z,2.27
2023-11-23T04:27:24.576Z,2.24
2023-11-23T04:30:09.695Z,2.24
2023-11-23T04:32:54.881Z,2.17
2023-11-23T04:35:40.107Z,2.24
2023-11-23T04:38:25.050Z,2.31
2023-11-23T04:41:10.335Z,2.23
2023-11-23T04:43:55.332Z,2.15
2023-11-23T04:46:40.584Z,2.21
2023-11-23T04:49:25.764Z,2.23
2023-11-23T04:52:10.889Z,2.22
2023-11-23T04:54:56.162Z,2.20
2023-11-23T04:57:41.221Z,2.24
2023-11-23T05:00:26.761Z,2.15
2023-11-23T05:03:12.028Z,2.10
2023-11-23T05:05:57.186Z,1.96
2023-11-23T05:08:42.286Z,1.95
2023-11-23T05:11:27.239Z,1.96
2023-11-23T05:14:12.430Z,2.05
2023-11-23T05:16:57.328Z,2.12
2023-11-23T05:19:43.362Z,2.16
2023-11-23T05:22:28.502Z,2.26
2023-11-23T05:25:13.585Z,2.18
2023-11-23T05:27:58.711Z,2.22
2023-11-23T05:30:43.857Z,2.39
2023-11-23T05:33:28.952Z,2.53
2023-11-23T05:36:13.929Z,2.66
2023-11-23T05:38:59.024Z,2.70
2023-11-23T05:41:44.093Z,2.75
2023-11-23T05:44:29.320Z,2.84
2023-11-23T05:47:14.484Z,2.94
2023-11-23T05:49:59.587Z,2.98
2023-11-23T05:52:44.742Z,2.93
2023-11-23T05:55:29.829Z,2.91
2023-11-23T05:58:14.926Z,2.81
2023-11-23T06:01:07.550Z,2.69
2023-11-23T06:03:57.378Z,2.64
2023-11-23T06:06:42.267Z,2.55
2023-11-23T06:09:27.254Z,2.52
2023-11-23T06:12:12.311Z,2.49
2023-11-23T06:14:57.428Z,2.46
2023-11-23T06:17:42.594Z,2.49
2023-11-23T06:20:27.623Z,2.41
2023-11-23T06:23:12.683Z,2.34
2023-11-23T06:25:57.715Z,2.42
2023-11-23T06:28:43.015Z,2.50
2023-11-23T06:31:27.902Z,2.49
2023-11-23T06:34:13.029Z,2.50
2023-11-23T06:36:58.220Z,2.47
2023-11-23T06:39:43.362Z,2.39
2023-11-23T06:42:28.620Z,2.30
2023-11-23T06:45:13.547Z,2.23
2023-11-23T06:47:58.866Z,2.24
2023-11-23T06:50:43.884Z,2.19
2023-11-23T06:53:29.064Z,2.09
2023-11-23T06:56:14.157Z,2.09
2023-11-23T06:58:59.229Z,2.12
2023-11-23T07:01:44.590Z,2.15
2023-11-23T07:04:29.684Z,2.10
2023-11-23T07:07:15.019Z,2.02
2023-11-23T07:10:00.041Z,1.98
2023-11-23T07:12:45.049Z,2.11
2023-11-23T07:15:30.212Z,2.17
2023-11-23T07:18:15.628Z,2.27
2023-11-23T07:21:02.601Z,2.29
2023-11-23T07:23:47.601Z,2.33
2023-11-23T07:26:32.857Z,2.30
2023-11-23T07:29:17.828Z,2.26
2023-11-23T07:32:02.773Z,2.32
2023-11-23T07:34:47.896Z,2.31
2023-11-23T07:37:32.957Z,2.39
2023-11-23T07:40:18.172Z,2.46
2023-11-23T07:43:03.186Z,2.62
2023-11-23T07:45:48.214Z,2.77
2023-11-23T07:48:33.218Z,2.87
2023-11-23T07:51:18.328Z,2.99
2023-11-23T07:54:03.321Z,3.11
2023-11-23T07:56:48.493Z,3.24
2023-11-23T07:59:33.684Z,3.44
2023-11-23T08:02:18.806Z,3.72
2023-11-23T08:05:04.098Z,3.90
2023-11-23T08:07:49.119Z,4.11
2023-11-23T08:10:34.409Z,4.22
2023-11-23T08:13:19.542Z,4.36
2023-11-23T08:16:04.735Z,4.46
2023-11-23T08:18:50.590Z,4.67
2023-11-23T08:21:35.577Z,4.82
2023-11-23T08:24:20.696Z,4.84
2023-11-23T08:27:05.793Z,4.89
2023-11-23T08:29:51.022Z,5.03
2023-11-23T08:32:36.186Z,5.17
2023-11-23T08:35:21.307Z,5.30
2023-11-23T08:38:06.461Z,5.47
2023-11-23T08:40:51.496Z,5.58
2023-11-23T08:43:36.641Z,5.74
2023-11-23T08:46:21.619Z,5.85
2023-11-23T08:49:06.880Z,5.76
2023-11-23T08:51:52.038Z,5.86
2023-11-23T08:54:37.015Z,5.97
2023-11-23T08:57:22.415Z,6.06
2023-11-23T09:00:07.270Z,6.15
2023-11-23T09:02:52.515Z,5.97
2023-11-23T09:05:37.543Z,5.98
2023-11-23T09:08:22.631Z,6.02
2023-11-23T09:11:07.729Z,6.07
2023-11-23T09:13:52.818Z,6.09
2023-11-23T09:16:37.897Z,6.04
2023-11-23T09:19:23.059Z,6.13
2023-11-23T09:22:08.218Z,5.97
2023-11-23T09:24:53.342Z,5.67
2023-11-23T09:27:38.538Z,5.59
2023-11-23T09:30:23.580Z,5.74
2023-11-23T09:33:08.753Z,5.79
2023-11-23T09:35:53.772Z,6.02
2023-11-23T09:38:38.894Z,6.34
2023-11-23T09:41:24.060Z,6.35
2023-11-23T09:44:09.015Z,6.29
2023-11-23T09:46:54.174Z,6.24
2023-11-23T09:49:39.084Z,6.29
2023-11-23T09:52:24.269Z,6.54
2023-11-23T09:55:09.565Z,6.72
2023-11-23T09:57:54.528Z,6.91
2023-11-23T10:00:39.703Z,7.05
2023-11-23T10:03:24.693Z,7.18
2023-11-23T10:06:09.958Z,7.31
2023-11-23T10:08:54.997Z,7.44
2023-11-23T10:11:40.213Z,7.48
2023-11-23T10:14:25.140Z,7.52
2023-11-23T10:17:10.138Z,7.56
2023-11-23T10:19:55.224Z,7.54
2023-11-23T10:22:40.188Z,7.51
2023-11-23T10:25:25.361Z,7.48
2023-11-23T10:28:10.371Z,7.51
2023-11-23T10:30:55.608Z,7.56
2023-11-23T10:33:40.690Z,7.72
2023-11-23T10:36:25.774Z,7.55
2023-11-23T10:39:10.975Z,7.61
2023-11-23T10:41:55.942Z,7.68
2023-11-23T10:44:41.060Z,7.59
2023-11-23T10:47:26.165Z,7.60
2023-11-23T10:50:11.234Z,7.58
2023-11-23T10:52:56.299Z,7.62
2023-11-23T10:55:41.394Z,7.69
2023-11-23T10:58:26.543Z,7.53
2023-11-23T11:01:11.634Z,7.64
2023-11-23T11:03:56.997Z,7.57
2023-11-23T11:06:42.006Z,7.79
2023-11-23T11:09:30.170Z,7.92
2023-11-23T11:12:15.903Z,8.01
2023-11-23T11:15:01.002Z,8.13
2023-11-23T11:17:46.198Z,8.07
2023-11-23T11:20:31.184Z,7.99
2023-11-23T11:23:16.317Z,8.08
2023-11-23T11:26:01.377Z,8.18
2023-11-23T11:28:46.476Z,8.27
2023-11-23T11:31:31.603Z,8.22
2023-11-23T11:34:16.643Z,8.10
2023-11-23T11:37:01.777Z,7.95
2023-11-23T11:39:46.980Z,7.91
2023-11-23T11:42:32.325Z,8.00
2023-11-23T11:45:17.344Z,7.94
2023-11-23T11:48:02.553Z,7.70
2023-11-23T11:50:47.709Z,7.71
2023-11-23T11:53:32.781Z,7.47
2023-11-23T11:56:17.869Z,7.21
2023-11-23T11:59:02.879Z,7.23
2023-11-23T12:01:48.005Z,7.22
2023-11-23T12:04:33.088Z,7.47
2023-11-23T12:07:17.986Z,7.63
2023-11-23T12:10:03.061Z,7.77
2023-11-23T12:12:48.220Z,7.72
2023-11-23T12:15:33.540Z,7.66
2023-11-23T12:18:18.429Z,7.64
2023-11-23T12:21:03.597Z,7.65
2023-11-23T12:23:48.538Z,7.72
2023-11-23T12:26:33.940Z,7.77
2023-11-23T12:29:18.912Z,7.84
2023-11-23T12:32:03.941Z,7.86
2023-11-23T12:34:49.110Z,7.92
2023-11-23T12:37:34.094Z,8.04
2023-11-23T12:40:19.214Z,8.05
2023-11-23T12:43:04.261Z,7.98
2023-11-23T12:45:49.438Z,8.02
2023-11-23T12:48:34.477Z,7.79
2023-11-23T12:51:19.609Z,7.61
2023-11-23T12:54:04.751Z,7.31
2023-11-23T12:56:49.656Z,7.22
2023-11-23T12:59:34.919Z,7.11
2023-11-23T13:02:19.956Z,7.03
2023-11-23T13:05:05.100Z,7.03
2023-11-23T13:07:50.074Z,7.14
2023-11-23T13:10:35.256Z,7.19
2023-11-23T13:13:20.542Z,7.35
2023-11-23T13:16:05.547Z,7.34
2023-11-23T13:19:05.937Z,7.40
2023-11-23T13:21:55.327Z,7.55
2023-11-23T13:24:40.360Z,7.64
2023-11-23T13:27:26.894Z,7.68
2023-11-23T13:30:13.772Z,7.74
2023-11-23T13:32:58.982Z,7.80
2023-11-23T13:35:44.359Z,7.85
2023-11-23T13:38:29.231Z,7.92
2023-11-23T13:41:14.343Z,7.97
2023-11-23T13:43:59.322Z,7.98
2023-11-23T13:46:44.490Z,8.02
2023-11-23T13:49:29.597Z,7.99
2023-11-23T13:52:14.744Z,8.01
2023-11-23T13:54:59.882Z,7.92
2023-11-23T13:57:44.897Z,7.86
2023-11-23T14:00:30.113Z,7.68
2023-11-23T14:03:15.126Z,7.55
2023-11-23T14:06:00.262Z,7.41
2023-11-23T14:08:45.452Z,7.27
2023-11-23T14:11:30.433Z,7.20
2023-11-23T14:14:15.486Z,7.24
2023-11-23T14:17:00.612Z,7.18
2023-11-23T14:19:45.822Z,7.06
2023-11-23T14:22:30.844Z,7.00
2023-11-23T14:25:16.080Z,7.05
2023-11-23T14:28:01.052Z,7.09
2023-11-23T14:30:46.190Z,7.10
2023-11-23T14:33:31.235Z,7.17
2023-11-23T14:36:16.388Z,7.14
2023-11-23T14:39:01.408Z,7.10
2023-11-23T14:41:46.474Z,7.14
2023-11-23T14:44:31.713Z,7.04
2023-11-23T14:47:16.685Z,6.95
2023-11-23T14:50:01.735Z,6.88
2023-11-23T14:52:46.770Z,6.73
2023-11-23T14:55:31.997Z,6.69
2023-11-23T14:58:17.061Z,6.63
2023-11-23T15:01:02.003Z,6.67
2023-11-23T15:03:47.045Z,6.65
2023-11-23T15:06:32.129Z,6.65
2023-11-23T15:09:17.230Z,6.58
2023-11-23T15:12:02.275Z,6.47
2023-11-23T15:14:47.514Z,6.36
2023-11-23T15:17:32.514Z,6.41
2023-11-23T15:20:17.574Z,6.42
2023-11-23T15:23:02.852Z,6.44
2023-11-23T15:25:47.824Z,6.38
2023-11-23T15:28:33.048Z,6.31
2023-11-23T15:31:18.093Z,6.30
2023-11-23T15:34:03.244Z,6.26
2023-11-23T15:36:48.207Z,6.19
2023-11-23T15:39:33.342Z,6.08
2023-11-23T15:42:18.621Z,6.08
2023-11-23T15:45:03.782Z,6.08
2023-11-23T15:47:48.820Z,6.06
2023-11-23T15:50:33.883Z,5.98
2023-11-23T15:53:19.095Z,5.96
2023-11-23T15:56:04.228Z,5.88
2023-11-23T15:58:49.316Z,5.82
2023-11-23T16:01:34.488Z,5.71
2023-11-23T16:04:19.642Z,5.61
2023-11-23T16:07:04.660Z,5.62
2023-11-23T16:09:49.748Z,5.73
2023-11-23T16:12:35.000Z,5.78
2023-11-23T16:15:20.180Z,5.80
2023-11-23T16:18:05.313Z,5.77
2023-11-23T16:20:50.442Z,5.64
2023-11-23T16:23:35.553Z,5.57
2023-11-23T16:26:20.598Z,5.60
2023-11-23T16:29:05.650Z,5.52
2023-11-23T16:31:50.810Z,5.43
2023-11-23T16:34:35.826Z,5.34
2023-11-23T16:37:21.125Z,5.19
2023-11-23T16:40:06.247Z,5.20
2023-11-23T16:42:51.375Z,5.28
2023-11-23T16:45:36.676Z,5.29
2023-11-23T16:48:21.821Z,5.18
2023-11-23T16:51:07.178Z,5.17
2023-11-23T16:53:55.347Z,5.11
2023-11-23T16:56:40.321Z,5.18
2023-11-23T16:59:25.530Z,5.28
2023-11-23T17:02:10.646Z,5.34
2023-11-23T17:04:57.095Z,5.27
2023-11-23T17:07:43.555Z,5.12
2023-11-23T17:10:28.627Z,5.10
2023-11-23T17:13:13.680Z,5.17
2023-11-23T17:15:58.879Z,5.07
2023-11-23T17:18:44.065Z,5.05
2023-11-23T17:21:29.254Z,5.10
2023-11-23T17:24:14.277Z,5.21
2023-11-23T17:26:59.312Z,5.21
2023-11-23T17:29:44.437Z,5.14
2023-11-23T17:32:29.446Z,5.06
2023-11-23T17:35:14.397Z,5.23
2023-11-23T17:37:59.560Z,5.27
2023-11-23T17:40:44.536Z,5.37
2023-11-23T17:43:29.724Z,5.32
2023-11-23T17:46:14.803Z,5.28
2023-11-23T17:48:59.775Z,5.16
2023-11-23T17:51:45.078Z,5.23
2023-11-23T17:54:30.060Z,5.32
2023-11-23T17:57:14.945Z,5.34
2023-11-23T18:00:00.036Z,5.36
2023-11-23T18:02:45.267Z,5.38
2023-11-23T18:05:30.367Z,5.36
2023-11-23T18:08:15.527Z,5.36
2023-11-23T18:11:00.750Z,5.35
2023-11-23T18:13:45.808Z,5.31
2023-11-23T18:16:30.942Z,5.26
2023-11-23T18:19:15.937Z,5.23
2023-11-23T18:22:01.028Z,5.20
2023-11-23T18:24:46.157Z,5.16
2023-11-23T18:27:31.410Z,5.11
2023-11-23T18:30:16.562Z,5.03
2023-11-23T18:33:01.685Z,4.95
2023-11-23T18:35:46.869Z,4.97
2023-11-23T18:38:31.960Z,5.04
2023-11-23T18:41:17.037Z,5.00
2023-11-23T18:44:02.043Z,4.86
2023-11-23T18:46:47.225Z,4.74
2023-11-23T18:49:32.270Z,4.81
2023-11-23T18:52:17.433Z,4.65
2023-11-23T18:55:02.624Z,4.64
2023-11-23T18:57:47.625Z,4.73
2023-11-23T19:00:32.696Z,4.68
2023-11-23T19:03:17.864Z,4.63
2023-11-23T19:06:02.856Z,4.55
2023-11-23T19:08:48.100Z,4.53
2023-11-23T19:11:33.136Z,4.51
2023-11-23T19:14:18.256Z,4.50
2023-11-23T19:17:03.285Z,4.49
2023-11-23T19:19:48.369Z,4.49
2023-11-23T19:22:34.554Z,4.48
2023-11-23T19:25:19.520Z,4.36
2023-11-23T19:28:04.730Z,4.30
2023-11-23T19:30:49.938Z,4.43
2023-11-23T19:33:35.054Z,4.37
2023-11-23T19:36:19.969Z,4.32
2023-11-23T19:39:05.135Z,4.29
2023-11-23T19:41:50.121Z,4.25
2023-11-23T19:44:35.150Z,4.26
2023-11-23T19:47:20.202Z,4.33
2023-11-23T19:50:05.237Z,4.49
2023-11-23T19:52:50.471Z,4.54
2023-11-23T19:55:35.476Z,4.49
2023-11-23T19:58:20.533Z,4.42
2023-11-23T20:01:05.573Z,4.23
2023-11-23T20:03:50.861Z,4.44
2023-11-23T20:06:35.906Z,4.56
2023-11-23T20:09:20.857Z,4.54
2023-11-23T20:12:05.911Z,4.54
2023-11-23T20:14:51.054Z,4.57
2023-11-23T20:17:36.213Z,4.56
2023-11-23T20:20:21.274Z,4.62
2023-11-23T20:23:06.472Z,4.70
2023-11-23T20:25:51.433Z,4.74
2023-11-23T20:28:36.681Z,4.78
2023-11-23T20:31:21.658Z,4.78
2023-11-23T20:34:06.594Z,4.74
2023-11-23T20:36:51.844Z,4.70
2023-11-23T20:39:36.814Z,4.76
2023-11-23T20:42:21.964Z,4.77
2023-11-23T20:45:07.007Z,4.78
2023-11-23T20:47:52.145Z,4.74
2023-11-23T20:50:37.049Z,4.57
2023-11-23T20:53:22.153Z,4.56
2023-11-23T20:56:07.339Z,4.43
2023-11-23T20:58:52.460Z,4.45
2023-11-23T21:01:37.675Z,4.49
2023-11-23T21:04:27.245Z,4.47
2023-11-23T21:07:14.256Z,4.51
2023-11-23T21:09:59.545Z,4.52
2023-11-23T21:12:44.717Z,4.49
2023-11-23T21:15:29.740Z,4.51
2023-11-23T21:18:15.074Z,4.53
2023-11-23T21:21:00.043Z,4.68
2023-11-23T21:23:45.384Z,4.72
2023-11-23T21:26:30.284Z,4.78
2023-11-23T21:29:15.495Z,4.75
2023-11-23T21:32:00.592Z,4.74
2023-11-23T21:34:45.716Z,4.68
2023-11-23T21:37:30.950Z,4.61
2023-11-23T21:40:16.025Z,4.65
2023-11-23T21:43:01.263Z,4.67
2023-11-23T21:45:46.185Z,4.57
2023-11-23T21:48:31.463Z,4.58
2023-11-23T21:51:16.604Z,4.58
2023-11-23T21:54:01.664Z,4.59
2023-11-23T21:56:46.866Z,4.61
2023-11-23T21:59:31.979Z,4.58
2023-11-23T22:02:17.075Z,4.53
2023-11-23T22:05:02.149Z,4.45
2023-11-23T22:07:47.176Z,4.44
2023-11-23T22:10:32.284Z,4.36
2023-11-23T22:13:17.490Z,4.31
2023-11-23T22:16:02.630Z,4.26
2023-11-23T22:18:47.749Z,4.33
2023-11-23T22:21:32.847Z,4.45
2023-11-23T22:24:17.873Z,4.44
2023-11-23T22:27:03.101Z,4.42
2023-11-23T22:29:48.219Z,4.42
2023-11-23T22:32:33.535Z,4.42
2023-11-23T22:35:18.456Z,4.40
2023-11-23T22:38:03.510Z,4.32
2023-11-23T22:40:48.671Z,4.21
2023-11-23T22:43:33.938Z,4.22
2023-11-23T22:46:19.126Z,4.31
2023-11-23T22:49:04.095Z,4.24
2023-11-23T22:51:49.325Z,4.22
2023-11-23T22:54:34.499Z,4.35
2023-11-23T22:57:19.645Z,4.38
2023-11-23T23:00:04.808Z,4.39
2023-11-23T23:02:50.081Z,4.39
2023-11-23T23:05:35.122Z,4.40
2023-11-23T23:08:20.222Z,4.44
2023-11-23T23:11:05.428Z,4.53
2023-11-23T23:13:50.527Z,4.50
2023-11-23T23:16:35.778Z,4.44
2023-11-23T23:19:20.905Z,4.37
2023-11-23T23:22:16.856Z,4.37
2023-11-23T23:25:09.171Z,4.31
2023-11-23T23:27:54.073Z,4.26
2023-11-23T23:30:39.090Z,4.20
2023-11-23T23:33:24.369Z,4.11
2023-11-23T23:36:09.314Z,4.22
2023-11-23T23:38:54.449Z,4.30
2023-11-23T23:41:39.579Z,4.30
2023-11-23T23:44:24.852Z,4.25
2023-11-23T23:47:09.969Z,4.24
2023-11-23T23:49:54.734Z,4.23
2023-11-23T23:52:39.977Z,4.27
2023-11-23T23:55:25.051Z,4.24
2023-11-23T23:58:10.209Z,4.26
